createdAt,value
2022-09-10T12:47:50.287Z,101228.41
2022-09-10T12:50:32.361Z,101229.16
2022-09-10T12:53:19.417Z,101231.63
2022-09-10T12:55:53.732Z,101231.53
2022-09-10T12:58:24.128Z,101235.72
2022-09-10T13:01:06.072Z,101236.41
2022-09-10T13:03:35.369Z,101224.75
2022-09-10T13:06:04.237Z,101235.00
2022-09-10T13:08:33.662Z,101228.69
2022-09-10T13:11:20.031Z,101234.91
2022-09-10T13:13:52.653Z,101234.94
2022-09-10T13:16:21.478Z,101237.63
2022-09-10T13:18:56.807Z,101235.91
2022-09-10T13:21:52.952Z,101233.28
2022-09-10T13:24:39.848Z,101232.53
2022-09-10T13:27:20.681Z,101237.03
2022-09-10T13:29:49.020Z,101236.31
2022-09-10T13:32:20.423Z,101233.72
2022-09-10T13:35:20.234Z,101235.56
2022-09-10T13:38:03.734Z,101241.84
2022-09-10T13:41:10.915Z,101241.00
2022-09-10T13:43:44.848Z,101239.28
2022-09-10T13:46:14.782Z,101242.91
2022-09-10T13:48:44.707Z,101239.50
2022-09-10T13:51:18.156Z,101237.63
2022-09-10T13:53:46.962Z,101234.13
2022-09-10T13:56:17.846Z,101241.13
2022-09-10T13:58:48.491Z,101244.63
2022-09-10T14:01:16.544Z,101251.69
2022-09-10T14:03:44.894Z,101256.97
2022-09-10T14:06:16.790Z,101259.69
2022-09-10T14:08:49.461Z,101265.94
2022-09-10T14:11:19.282Z,101273.03
2022-09-10T14:13:48.717Z,101270.47
2022-09-10T14:16:19.048Z,101257.41
2022-09-10T14:18:48.410Z,101271.41
2022-09-10T14:21:17.692Z,101272.31
2022-09-10T14:23:46.187Z,101271.53
2022-09-10T14:26:17.263Z,101265.41
2022-09-10T14:28:52.495Z,101268.97
2022-09-10T14:31:22.594Z,101266.38
2022-09-10T14:33:50.631Z,101266.44
2022-09-10T14:36:22.238Z,101262.13
2022-09-10T14:38:54.473Z,101271.94
2022-09-10T14:41:24.763Z,101273.69
2022-09-10T14:44:11.118Z,101277.31
2022-09-10T14:46:50.278Z,101272.16
2022-09-10T14:49:18.652Z,101270.44
2022-09-10T14:51:48.050Z,101279.31
2022-09-10T14:54:15.953Z,101286.50
2022-09-10T14:56:44.944Z,101288.38
2022-09-10T14:59:15.212Z,101290.22
2022-09-10T15:01:43.380Z,101298.28
2022-09-10T15:04:13.986Z,101293.97
2022-09-10T15:06:43.592Z,101312.47
2022-09-10T15:09:13.325Z,101294.09
2022-09-10T15:11:44.595Z,101302.97
2022-09-10T15:14:12.848Z,101295.09
2022-09-10T15:16:40.837Z,101303.06
2022-09-10T15:19:08.719Z,101303.97
2022-09-10T15:21:36.596Z,101297.91
2022-09-10T15:24:05.903Z,101289.13
2022-09-10T15:26:35.151Z,101289.13
2022-09-10T15:29:03.278Z,101296.13
2022-09-10T15:31:32.866Z,101289.03
2022-09-10T15:34:00.888Z,101290.69
2022-09-10T15:36:28.797Z,101287.97
2022-09-10T15:38:56.703Z,101293.16
2022-09-10T15:41:24.573Z,101287.84
2022-09-10T15:43:53.843Z,101290.41
2022-09-10T15:46:24.433Z,101292.06
2022-09-10T15:48:52.521Z,101300.00
2022-09-10T15:51:23.065Z,101297.34
2022-09-10T15:53:51.392Z,101305.34
2022-09-10T15:56:19.501Z,101299.38
2022-09-10T15:58:49.237Z,101310.94
2022-09-10T16:01:18.679Z,101306.63
2022-09-10T16:03:47.691Z,101304.94
2022-09-10T16:06:15.805Z,101297.94
2022-09-10T16:08:43.662Z,101300.63
2022-09-10T16:11:12.790Z,101299.78
2022-09-10T16:13:40.686Z,101297.25
2022-09-10T16:16:09.924Z,101301.69
2022-09-10T16:18:39.443Z,101303.50
2022-09-10T16:21:09.509Z,101306.19
2022-09-10T16:23:37.534Z,101305.41
2022-09-10T16:26:06.056Z,101319.47
2022-09-10T16:28:34.006Z,101316.88
2022-09-10T16:31:12.815Z,101321.34
2022-09-10T16:33:42.129Z,101326.66
2022-09-10T16:36:10.891Z,101333.72
2022-09-10T16:38:38.843Z,101326.69
2022-09-10T16:41:07.531Z,101324.97
2022-09-10T16:43:36.100Z,101326.81
2022-09-10T16:46:04.196Z,101325.94
2022-09-10T16:48:32.769Z,101329.53
2022-09-10T16:51:06.418Z,101343.63
2022-09-10T16:53:34.935Z,101348.97
2022-09-10T16:56:03.224Z,101351.63
2022-09-10T16:58:35.637Z,101346.44
2022-09-10T17:01:03.864Z,101347.34
2022-09-10T17:03:31.819Z,101347.34
2022-09-10T17:06:00.105Z,101346.56
2022-09-10T17:08:30.163Z,101356.22
2022-09-10T17:10:58.112Z,101353.63
2022-09-10T17:13:26.138Z,101351.03
2022-09-10T17:15:54.863Z,101348.44
2022-09-10T17:18:22.836Z,101346.72
2022-09-10T17:20:50.733Z,101343.25
2022-09-10T17:23:18.703Z,101351.22
2022-09-10T17:25:48.343Z,101354.75
2022-09-10T17:28:16.671Z,101361.84
2022-09-10T17:30:45.601Z,101371.53
2022-09-10T17:33:13.526Z,101373.34
2022-09-10T17:35:41.410Z,101371.63
2022-09-10T17:38:09.754Z,101376.91
2022-09-10T17:40:38.423Z,101364.66
2022-09-10T17:43:08.371Z,101374.38
2022-09-10T17:45:38.108Z,101382.28
2022-09-10T17:48:05.998Z,101375.28
2022-09-10T17:50:33.928Z,101383.22
2022-09-10T17:53:02.320Z,101372.81
2022-09-10T17:55:33.793Z,101374.63
2022-09-10T17:58:01.784Z,101387.84
2022-09-10T18:00:31.093Z,101378.25
2022-09-10T18:02:59.044Z,101388.88
2022-09-10T18:05:27.141Z,101385.38
2022-09-10T18:07:55.038Z,101390.69
2022-09-10T18:10:23.430Z,101389.88
2022-09-10T18:12:51.304Z,101384.69
2022-09-10T18:15:19.694Z,101388.22
2022-09-10T18:17:49.894Z,101388.22
2022-09-10T18:20:17.996Z,101381.28
2022-09-10T18:22:45.895Z,101390.13
2022-09-10T18:25:13.801Z,101395.44
2022-09-10T18:27:43.283Z,101391.94
2022-09-10T18:30:12.177Z,101402.56
2022-09-10T18:32:40.101Z,101397.31
2022-09-10T18:35:09.895Z,101400.91
2022-09-10T18:37:37.797Z,101405.28
2022-09-10T18:40:07.214Z,101409.69
2022-09-10T18:42:35.151Z,101408.88
2022-09-10T18:45:03.824Z,101404.53
2022-09-10T18:47:44.615Z,101409.81
2022-09-10T18:50:14.389Z,101413.38
2022-09-10T18:52:42.429Z,101413.41
2022-09-10T18:55:10.812Z,101421.31
2022-09-10T18:57:38.696Z,101423.09
2022-09-10T19:00:07.537Z,101429.28
2022-09-10T19:02:35.502Z,101420.56
2022-09-10T19:05:12.408Z,101426.69
2022-09-10T19:07:41.969Z,101435.50
2022-09-10T19:10:09.944Z,101444.31
2022-09-10T19:12:37.813Z,101446.13
2022-09-10T19:15:06.302Z,101448.75
2022-09-10T19:17:34.364Z,101448.81
2022-09-10T19:20:02.356Z,101458.47
2022-09-10T19:22:30.303Z,101454.16
2022-09-10T19:24:59.584Z,101463.81
2022-09-10T19:27:29.051Z,101463.91
2022-09-10T19:29:56.912Z,101466.53
2022-09-10T19:32:24.958Z,101470.94
2022-09-10T19:34:52.869Z,101473.59
2022-09-10T19:37:20.970Z,101471.00
2022-09-10T19:39:49.123Z,101472.81
2022-09-10T19:42:18.733Z,101472.81
2022-09-10T19:44:46.657Z,101473.75
2022-09-10T19:47:14.537Z,101471.13
2022-09-10T19:49:42.417Z,101473.75
2022-09-10T19:52:11.167Z,101475.53
2022-09-10T19:54:39.121Z,101468.56
2022-09-10T19:57:07.025Z,101475.63
2022-09-10T19:59:36.329Z,101477.34
2022-09-10T20:02:04.375Z,101473.84
2022-09-10T20:04:33.139Z,101486.16
2022-09-10T20:07:01.029Z,101487.09
2022-09-10T20:09:28.912Z,101485.31
2022-09-10T20:11:56.830Z,101492.38
2022-09-10T20:14:25.420Z,101488.00
2022-09-10T20:16:54.988Z,101491.53
2022-09-10T20:19:22.854Z,101489.81
2022-09-10T20:21:51.551Z,101499.44
2022-09-10T20:24:19.438Z,101496.00
2022-09-10T20:26:48.956Z,101503.03
2022-09-10T20:29:17.931Z,101496.94
2022-09-10T20:31:46.289Z,101500.41
2022-09-10T20:34:16.462Z,101499.59
2022-09-10T20:36:44.384Z,101501.34
2022-09-10T20:39:13.637Z,101507.56
2022-09-10T20:41:41.612Z,101515.44
2022-09-10T20:44:09.625Z,101519.00
2022-09-10T20:46:37.995Z,101527.78
2022-09-10T20:49:05.937Z,101520.72
2022-09-10T20:51:36.478Z,101525.16
2022-09-10T20:54:04.420Z,101521.69
2022-09-10T20:56:32.336Z,101523.44
2022-09-10T20:59:01.912Z,101519.03
2022-09-10T21:01:31.148Z,101523.50
2022-09-10T21:04:00.230Z,101527.94
2022-09-10T21:06:29.173Z,101527.03
2022-09-10T21:08:58.568Z,101527.06
2022-09-10T21:11:27.545Z,101529.69
2022-09-10T21:13:56.196Z,101538.47
2022-09-10T21:16:25.219Z,101538.47
2022-09-10T21:18:55.048Z,101539.31
2022-09-10T21:21:25.736Z,101530.56
2022-09-10T21:23:54.447Z,101531.44
2022-09-10T21:26:25.149Z,101527.09
2022-09-10T21:28:55.992Z,101525.34
2022-09-10T21:31:24.006Z,101526.19
2022-09-10T21:33:52.104Z,101529.72
2022-09-10T21:36:21.067Z,101524.44
2022-09-10T21:38:49.138Z,101529.75
2022-09-10T21:41:17.836Z,101526.25
2022-09-10T21:43:47.660Z,101525.34
2022-09-10T21:46:15.992Z,101528.00
2022-09-10T21:48:44.314Z,101531.53
2022-09-10T21:51:13.237Z,101535.03
2022-09-10T21:53:41.530Z,101530.66
2022-09-10T21:56:09.433Z,101528.00
2022-09-10T21:58:37.626Z,101534.16
2022-09-10T22:01:11.833Z,101532.41
2022-09-10T22:03:39.947Z,101542.06
2022-09-10T22:06:08.490Z,101546.47
2022-09-10T22:08:36.757Z,101537.72
2022-09-10T22:11:08.896Z,101543.00
2022-09-10T22:13:37.799Z,101547.34
2022-09-10T22:16:06.436Z,101557.91
2022-09-10T22:18:35.817Z,101558.81
2022-09-10T22:21:03.762Z,101563.19
2022-09-10T22:23:32.715Z,101562.31
2022-09-10T22:26:04.802Z,101562.31
2022-09-10T22:28:34.950Z,101566.75
2022-09-10T22:31:10.504Z,101567.63
2022-09-10T22:33:40.253Z,101578.19
2022-09-10T22:36:12.623Z,101573.75
2022-09-10T22:38:41.400Z,101570.31
2022-09-10T22:41:10.244Z,101569.44
2022-09-10T22:43:38.639Z,101578.19
2022-09-10T22:46:07.858Z,101571.22
2022-09-10T22:48:37.691Z,101577.34
2022-09-10T22:51:07.187Z,101580.84
2022-09-10T22:53:35.123Z,101589.63
2022-09-10T22:56:03.383Z,101584.38
2022-09-10T22:58:32.928Z,101588.75
2022-09-10T23:01:04.165Z,101594.03
2022-09-10T23:03:32.149Z,101597.53
2022-09-10T23:06:06.148Z,101597.53
2022-09-10T23:08:36.087Z,101600.19
2022-09-10T23:11:11.404Z,101602.81
2022-09-10T23:13:39.417Z,101603.66
2022-09-10T23:16:12.353Z,101616.81
2022-09-10T23:18:40.551Z,101608.06
2022-09-10T23:21:08.680Z,101608.06
2022-09-10T23:23:37.980Z,101609.84
2022-09-10T23:26:07.141Z,101607.19
2022-09-10T23:28:35.015Z,101610.75
2022-09-10T23:31:10.673Z,101616.00
2022-09-10T23:33:38.597Z,101608.13
2022-09-10T23:36:07.257Z,101610.75
2022-09-10T23:38:37.169Z,101609.91
2022-09-10T23:41:05.075Z,101609.00
2022-09-10T23:43:33.124Z,101615.19
2022-09-10T23:46:01.098Z,101623.94
2022-09-10T23:48:29.697Z,101623.09
2022-09-10T23:50:57.830Z,101616.03
2022-09-10T23:53:26.251Z,101619.56
2022-09-10T23:55:55.658Z,101623.09
2022-09-10T23:58:23.550Z,101624.03
